createdAt,value
2018-05-23T00:00:13.898Z,15.40
2018-05-23T00:02:42.107Z,15.40
2018-05-23T00:05:10.848Z,15.50
2018-05-23T00:07:39.039Z,15.40
2018-05-23T00:10:07.347Z,15.50
2018-05-23T00:12:35.579Z,15.60
2018-05-23T00:15:05.238Z,15.50
2018-05-23T00:17:33.445Z,15.50
2018-05-23T00:20:01.688Z,15.50
2018-05-23T00:22:30.865Z,15.50
2018-05-23T00:24:59.214Z,15.50
2018-05-23T00:27:27.477Z,15.50
2018-05-23T00:29:55.662Z,15.40
2018-05-23T00:32:23.941Z,15.40
2018-05-23T00:34:53.020Z,15.20
2018-05-23T00:37:21.234Z,15.10
2018-05-23T00:39:49.469Z,15.10
2018-05-23T00:42:17.661Z,15.00
2018-05-23T00:44:45.858Z,15.00
2018-05-23T00:47:14.149Z,15.00
2018-05-23T00:49:43.402Z,14.80
2018-05-23T00:52:11.594Z,14.80
2018-05-23T00:54:52.337Z,14.90
2018-05-23T00:57:20.580Z,14.90
2018-05-23T00:59:48.795Z,14.90
2018-05-23T01:02:17.122Z,14.80
2018-05-23T01:04:46.114Z,14.80
2018-05-23T01:07:15.083Z,14.80
2018-05-23T01:09:43.647Z,14.70
2018-05-23T01:12:11.884Z,14.70
2018-05-23T01:14:40.115Z,14.70
2018-05-23T01:17:08.392Z,14.80
2018-05-23T01:19:36.591Z,14.70
2018-05-23T01:22:05.612Z,14.60
2018-05-23T01:24:33.819Z,14.60
2018-05-23T01:27:02.086Z,14.50
2018-05-23T01:29:30.327Z,14.50
2018-05-23T01:31:58.547Z,14.40
2018-05-23T01:34:26.756Z,14.30
2018-05-23T01:36:55.015Z,14.30
2018-05-23T01:39:23.275Z,14.30
2018-05-23T01:41:51.563Z,14.30
2018-05-23T01:44:21.127Z,14.30
2018-05-23T01:46:49.553Z,14.40
2018-05-23T01:49:26.515Z,14.30
2018-05-23T01:51:54.706Z,14.40
2018-05-23T01:54:22.916Z,14.30
2018-05-23T01:56:52.353Z,14.20
2018-05-23T01:59:21.312Z,14.30
2018-05-23T02:01:50.275Z,14.30
2018-05-23T02:04:18.531Z,14.30
2018-05-23T02:06:46.732Z,14.30
2018-05-23T02:09:14.982Z,14.30
2018-05-23T02:11:43.246Z,14.10
2018-05-23T02:14:11.534Z,14.20
2018-05-23T02:16:40.027Z,14.10
2018-05-23T02:19:08.311Z,14.20
2018-05-23T02:21:36.516Z,14.10
2018-05-23T02:24:05.527Z,14.00
2018-05-23T02:26:33.722Z,14.00
2018-05-23T02:29:01.927Z,13.90
2018-05-23T02:31:30.220Z,13.90
2018-05-23T02:33:58.588Z,13.90
2018-05-23T02:36:26.931Z,13.90
2018-05-23T02:38:55.150Z,13.90
2018-05-23T02:41:23.380Z,13.80
2018-05-23T02:43:51.615Z,13.80
2018-05-23T02:46:21.142Z,13.70
2018-05-23T02:48:49.367Z,13.60
2018-05-23T02:51:17.612Z,13.70
2018-05-23T02:53:46.231Z,13.70
2018-05-23T02:56:14.553Z,13.80
2018-05-23T02:58:42.747Z,13.60
2018-05-23T03:01:10.946Z,13.60
2018-05-23T03:03:39.303Z,13.60
2018-05-23T03:06:07.598Z,13.70
2018-05-23T03:08:35.804Z,13.70
2018-05-23T03:11:05.628Z,13.60
2018-05-23T03:13:34.630Z,13.70
2018-05-23T03:16:03.706Z,13.70
2018-05-23T03:18:31.932Z,13.70
2018-05-23T03:21:00.212Z,13.70
2018-05-23T03:23:28.623Z,13.60
2018-05-23T03:25:56.923Z,13.70
2018-05-23T03:28:25.370Z,13.70
2018-05-23T03:30:53.738Z,13.60
2018-05-23T03:33:22.035Z,13.60
2018-05-23T03:35:50.296Z,13.60
2018-05-23T03:38:18.498Z,13.70
2018-05-23T03:40:46.726Z,13.70
2018-05-23T03:43:15.082Z,13.70
2018-05-23T03:45:44.655Z,13.60
2018-05-23T03:48:12.888Z,13.60
2018-05-23T03:50:41.495Z,13.70
2018-05-23T03:53:09.703Z,13.70
2018-05-23T03:55:37.920Z,13.70
2018-05-23T03:58:06.134Z,13.80
2018-05-23T04:00:46.197Z,13.70
2018-05-23T04:03:26.242Z,13.80
2018-05-23T04:08:55.943Z,14.00
2018-05-23T04:11:24.142Z,13.80
2018-05-23T04:13:52.455Z,13.60
2018-05-23T04:16:20.792Z,13.40
2018-05-23T04:18:49.887Z,13.20
2018-05-23T04:21:18.893Z,13.20
2018-05-23T04:23:47.087Z,13.20
2018-05-23T04:26:16.670Z,13.30
2018-05-23T04:28:44.899Z,13.50
2018-05-23T04:31:13.211Z,13.40
2018-05-23T04:33:42.298Z,13.70
2018-05-23T04:36:11.420Z,13.50
2018-05-23T04:38:40.626Z,13.40
2018-05-23T04:41:08.879Z,13.40
2018-05-23T04:43:38.395Z,13.60
2018-05-23T04:46:06.588Z,13.60
2018-05-23T04:48:34.824Z,13.70
2018-05-23T04:51:03.921Z,14.00
2018-05-23T04:53:32.955Z,14.20
2018-05-23T04:56:01.224Z,14.10
2018-05-23T04:58:29.526Z,14.30
2018-05-23T05:00:57.947Z,14.50
2018-05-23T05:03:26.242Z,14.70
2018-05-23T05:05:54.451Z,14.80
2018-05-23T05:08:22.686Z,14.80
2018-05-23T05:10:51.723Z,15.10
2018-05-23T05:13:19.926Z,15.00
2018-05-23T05:15:48.342Z,15.10
2018-05-23T05:18:16.631Z,15.20
2018-05-23T05:20:44.926Z,15.20
2018-05-23T05:23:13.555Z,15.20
2018-05-23T05:25:41.905Z,15.30
2018-05-23T05:28:10.162Z,15.30
2018-05-23T05:30:38.474Z,15.50
2018-05-23T05:33:06.680Z,15.70
2018-05-23T05:35:35.707Z,16.20
2018-05-23T05:38:03.936Z,16.20
2018-05-23T05:40:32.874Z,16.40
2018-05-23T05:43:01.134Z,16.40
2018-05-23T05:45:29.370Z,16.50
2018-05-23T05:47:57.578Z,16.60
2018-05-23T05:50:26.530Z,16.80
2018-05-23T05:52:54.824Z,16.80
2018-05-23T05:55:23.999Z,16.80
2018-05-23T05:57:52.257Z,16.70
2018-05-23T06:00:20.491Z,16.60
2018-05-23T06:02:49.563Z,16.60
2018-05-23T06:05:18.899Z,16.70
2018-05-23T06:07:47.104Z,16.70
2018-05-23T06:10:15.302Z,16.80
2018-05-23T06:12:43.564Z,16.90
2018-05-23T06:15:11.850Z,17.10
2018-05-23T06:17:40.052Z,17.40
2018-05-23T06:20:09.042Z,17.60
2018-05-23T06:22:38.035Z,17.80
2018-05-23T06:25:07.149Z,17.90
2018-05-23T06:27:36.115Z,18.00
2018-05-23T06:30:04.334Z,18.00
2018-05-23T06:32:32.567Z,18.20
2018-05-23T06:35:00.942Z,18.30
2018-05-23T06:37:29.186Z,18.60
2018-05-23T06:39:57.422Z,19.30
2018-05-23T06:42:26.454Z,21.20
2018-05-23T06:44:54.777Z,21.20
2018-05-23T06:47:23.876Z,22.60
2018-05-23T06:49:52.225Z,22.50
2018-05-23T06:52:20.442Z,23.30
2018-05-23T06:54:49.433Z,23.40
2018-05-23T06:57:18.669Z,22.80
2018-05-23T06:59:46.868Z,22.70
2018-05-23T07:02:15.182Z,22.40
2018-05-23T07:04:44.634Z,22.90
2018-05-23T07:07:13.214Z,22.80
2018-05-23T07:09:41.447Z,24.20
2018-05-23T07:12:09.717Z,25.40
2018-05-23T07:14:37.931Z,26.00
2018-05-23T07:17:06.171Z,27.10
2018-05-23T07:19:34.366Z,27.10
2018-05-23T07:22:03.323Z,28.10
2018-05-23T07:24:32.058Z,28.00
2018-05-23T07:27:00.254Z,28.20
2018-05-23T07:29:28.546Z,28.20
2018-05-23T07:31:56.743Z,28.20
2018-05-23T07:34:24.974Z,27.80
2018-05-23T07:36:53.451Z,26.20
2018-05-23T07:39:21.666Z,25.80
2018-05-23T07:41:49.926Z,25.10
2018-05-23T07:44:19.973Z,24.90
2018-05-23T07:46:48.185Z,23.50
2018-05-23T07:49:17.420Z,23.80
2018-05-23T07:51:45.683Z,23.80
2018-05-23T07:54:13.867Z,24.40
2018-05-23T07:56:42.193Z,24.90
2018-05-23T07:59:10.306Z,25.50
2018-05-23T08:01:38.947Z,25.10
2018-05-23T08:04:07.919Z,25.80
2018-05-23T08:06:36.178Z,25.80
2018-05-23T08:09:05.291Z,26.40
2018-05-23T08:11:33.518Z,26.30
2018-05-23T08:14:01.738Z,26.90
2018-05-23T08:16:29.975Z,26.80
2018-05-23T08:18:58.159Z,26.90
2018-05-23T08:21:26.710Z,25.60
2018-05-23T08:23:55.718Z,25.80
2018-05-23T08:26:25.105Z,25.80
2018-05-23T08:28:54.426Z,25.50
2018-05-23T08:31:22.666Z,25.50
2018-05-23T08:33:51.665Z,28.10
2018-05-23T08:36:19.895Z,28.00
2018-05-23T08:38:48.906Z,29.60
2018-05-23T08:41:17.271Z,30.10
2018-05-23T08:43:45.535Z,30.00
2018-05-23T08:46:13.983Z,29.20
2018-05-23T08:48:42.258Z,27.70
2018-05-23T08:51:11.258Z,25.50
2018-05-23T08:53:39.463Z,25.40
2018-05-23T08:56:07.647Z,25.50
2018-05-23T08:58:36.031Z,25.40
2018-05-23T09:01:04.227Z,25.50
2018-05-23T09:03:32.507Z,25.50
2018-05-23T09:06:00.818Z,25.90
2018-05-23T09:08:29.003Z,25.90
2018-05-23T09:10:57.270Z,25.80
2018-05-23T09:13:25.482Z,25.90
2018-05-23T09:15:53.718Z,25.70
2018-05-23T09:18:22.127Z,25.30
2018-05-23T09:20:50.355Z,24.90
2018-05-23T09:23:19.466Z,24.90
2018-05-23T09:25:47.724Z,24.90
2018-05-23T09:28:16.675Z,24.60
2018-05-23T09:30:44.907Z,24.60
2018-05-23T09:33:13.099Z,24.50
2018-05-23T09:35:41.794Z,24.20
2018-05-23T09:38:10.823Z,24.40
2018-05-23T09:40:39.023Z,24.10
2018-05-23T09:43:08.077Z,23.80
2018-05-23T09:45:36.342Z,23.80
2018-05-23T09:48:04.547Z,23.60
2018-05-23T09:50:33.603Z,23.50
2018-05-23T09:53:01.800Z,23.50
2018-05-23T09:55:30.007Z,23.60
2018-05-23T09:57:59.114Z,23.70
2018-05-23T10:00:28.140Z,23.40
2018-05-23T10:02:56.394Z,23.30
2018-05-23T10:05:24.627Z,23.50
2018-05-23T10:07:53.051Z,23.70
2018-05-23T10:10:21.278Z,23.70
2018-05-23T10:12:49.489Z,23.90
2018-05-23T10:15:19.007Z,24.00
2018-05-23T10:17:47.314Z,23.80
2018-05-23T10:20:15.607Z,24.00
2018-05-23T10:22:43.842Z,23.70
2018-05-23T10:25:12.091Z,23.50
2018-05-23T10:30:17.345Z,22.80
2018-05-23T10:32:45.686Z,23.00
2018-05-23T10:35:14.698Z,23.00
2018-05-23T10:37:44.128Z,22.90
2018-05-23T10:40:12.395Z,22.90
2018-05-23T10:42:40.589Z,23.00
2018-05-23T10:45:08.856Z,23.20
2018-05-23T10:47:37.151Z,23.10
2018-05-23T10:50:05.401Z,22.90
2018-05-23T10:52:34.315Z,23.10
2018-05-23T10:55:02.608Z,23.10
2018-05-23T10:57:30.847Z,23.60
2018-05-23T11:00:00.316Z,23.60
2018-05-23T11:02:28.509Z,23.90
2018-05-23T11:04:57.479Z,24.20
2018-05-23T11:07:25.783Z,24.20
2018-05-23T11:12:31.750Z,24.60
2018-05-23T11:15:00.001Z,24.60
2018-05-23T11:17:29.522Z,24.60
2018-05-23T11:19:57.738Z,24.60
2018-05-23T11:22:26.003Z,24.60
2018-05-23T11:24:55.067Z,24.40
2018-05-23T11:27:23.310Z,24.40
2018-05-23T11:29:51.556Z,24.60
2018-05-23T11:32:20.583Z,24.30
2018-05-23T11:34:48.854Z,24.30
2018-05-23T11:37:17.087Z,24.60
2018-05-23T11:39:46.095Z,24.60
2018-05-23T11:42:15.063Z,24.60
2018-05-23T11:44:43.323Z,24.60
2018-05-23T11:47:11.568Z,24.00
2018-05-23T11:49:39.815Z,24.10
2018-05-23T11:52:08.903Z,24.10
2018-05-23T11:54:38.543Z,24.00
2018-05-23T11:57:06.749Z,24.00
2018-05-23T11:59:34.925Z,24.20
2018-05-23T12:02:03.239Z,24.20
2018-05-23T12:04:32.207Z,24.70
2018-05-23T12:07:00.431Z,24.60
2018-05-23T12:09:29.220Z,24.90
2018-05-23T12:11:57.435Z,24.90
2018-05-23T12:14:25.634Z,25.00
2018-05-23T12:16:53.866Z,24.60
2018-05-23T12:19:22.642Z,24.60
2018-05-23T12:21:50.919Z,24.60
2018-05-23T12:24:19.167Z,25.10
2018-05-23T12:26:48.207Z,26.10
2018-05-23T12:29:16.420Z,26.10
2018-05-23T12:31:44.626Z,26.40
2018-05-23T12:34:12.830Z,26.40
2018-05-23T12:36:41.103Z,26.50
2018-05-23T12:39:10.299Z,26.20
2018-05-23T12:41:38.578Z,26.20
2018-05-23T12:44:06.863Z,26.20
2018-05-23T12:46:35.307Z,26.10
2018-05-23T12:49:03.488Z,25.70
2018-05-23T12:51:31.683Z,25.50
2018-05-23T12:54:00.006Z,25.20
2018-05-23T12:56:29.061Z,25.20
2018-05-23T12:58:57.279Z,25.20
2018-05-23T13:01:26.310Z,26.10
2018-05-23T13:03:54.615Z,26.10
2018-05-23T13:06:22.830Z,25.90
2018-05-23T13:08:51.816Z,25.50
2018-05-23T13:11:20.066Z,25.50
2018-05-23T13:13:48.278Z,25.40
2018-05-23T13:16:17.318Z,25.30
2018-05-23T13:18:46.291Z,25.10
2018-05-23T13:21:14.486Z,25.10
2018-05-23T13:23:42.778Z,25.30
2018-05-23T13:26:10.971Z,26.30
2018-05-23T13:28:39.159Z,28.50
2018-05-23T13:31:08.143Z,29.70
2018-05-23T13:33:36.342Z,29.70
2018-05-23T13:36:05.395Z,27.10
2018-05-23T13:38:33.590Z,27.00
2018-05-23T13:41:01.918Z,26.00
2018-05-23T13:43:30.195Z,25.60
2018-05-23T13:45:58.425Z,25.30
2018-05-23T13:48:26.777Z,25.20
2018-05-23T13:50:54.990Z,25.00
2018-05-23T13:53:24.001Z,24.60
2018-05-23T13:55:52.289Z,24.60
2018-05-23T13:58:20.517Z,24.70
2018-05-23T14:00:48.719Z,24.20
2018-05-23T14:03:16.962Z,23.90
2018-05-23T14:05:45.212Z,23.50
2018-05-23T14:08:13.447Z,23.30
2018-05-23T14:10:41.679Z,23.20
2018-05-23T14:13:10.373Z,23.10
2018-05-23T14:15:38.612Z,23.10
2018-05-23T14:18:07.571Z,23.00
2018-05-23T14:20:35.771Z,22.90
2018-05-23T14:23:03.971Z,22.50
2018-05-23T14:25:32.286Z,22.10
2018-05-23T14:28:01.251Z,21.60
2018-05-23T14:30:29.459Z,21.60
2018-05-23T14:32:58.465Z,21.70
2018-05-23T14:35:26.694Z,21.60
2018-05-23T14:37:54.953Z,21.60
2018-05-23T14:40:23.234Z,21.60
2018-05-23T14:42:51.505Z,21.40
2018-05-23T14:45:19.723Z,21.10
2018-05-23T14:47:48.682Z,20.50
2018-05-23T14:50:16.883Z,20.50
2018-05-23T14:52:45.074Z,20.00
2018-05-23T14:55:14.058Z,19.90
2018-05-23T14:57:43.054Z,19.90
2018-05-23T15:00:12.290Z,19.90
2018-05-23T15:02:40.496Z,19.90
2018-05-23T15:05:08.690Z,19.80
2018-05-23T15:07:36.978Z,19.60
2018-05-23T15:10:05.958Z,19.30
2018-05-23T15:12:34.154Z,19.30
2018-05-23T15:15:03.127Z,19.20
2018-05-23T15:17:31.323Z,19.20
2018-05-23T15:20:01.668Z,19.00
2018-05-23T15:22:29.891Z,19.00
2018-05-23T15:24:58.086Z,18.80
2018-05-23T15:27:27.167Z,18.70
2018-05-23T15:29:55.359Z,18.60
2018-05-23T15:32:24.342Z,18.60
2018-05-23T15:34:53.390Z,18.70
2018-05-23T15:37:21.590Z,18.70
2018-05-23T15:39:50.727Z,18.80
2018-05-23T15:44:55.268Z,18.70
2018-05-23T15:47:23.459Z,18.70
2018-05-23T15:49:51.675Z,18.70
2018-05-23T15:52:19.942Z,18.70
2018-05-23T15:54:48.178Z,18.60
2018-05-23T15:57:17.150Z,18.80
2018-05-23T15:59:46.394Z,18.70
2018-05-23T16:02:14.606Z,18.60
2018-05-23T16:04:42.842Z,18.60
2018-05-23T16:07:11.052Z,18.60
2018-05-23T16:09:39.258Z,18.50
2018-05-23T16:12:08.246Z,18.30
2018-05-23T16:14:37.308Z,18.30
2018-05-23T16:17:05.583Z,18.30
2018-05-23T16:19:33.777Z,18.30
2018-05-23T16:22:02.051Z,18.20
2018-05-23T16:24:30.284Z,18.00
2018-05-23T16:26:58.492Z,17.80
2018-05-23T16:29:26.729Z,17.60
2018-05-23T16:31:55.027Z,17.60
2018-05-23T16:34:23.351Z,17.70
2018-05-23T16:36:52.443Z,17.70
2018-05-23T16:39:22.306Z,17.80
2018-05-23T16:41:50.963Z,17.70
2018-05-23T16:44:19.386Z,17.90
2018-05-23T16:46:48.311Z,18.10
2018-05-23T16:49:17.273Z,18.00
2018-05-23T16:51:45.515Z,18.00
2018-05-23T16:54:13.706Z,18.10
2018-05-23T16:56:43.397Z,17.90
2018-05-23T16:59:11.588Z,17.90
2018-05-23T17:01:39.854Z,17.80
2018-05-23T17:04:08.050Z,17.80
2018-05-23T17:06:36.271Z,17.80
2018-05-23T17:09:06.159Z,17.70
2018-05-23T17:11:34.399Z,17.70
2018-05-23T17:14:02.591Z,17.70
2018-05-23T17:16:30.922Z,17.70
2018-05-23T17:18:59.218Z,17.90
2018-05-23T17:21:27.497Z,18.00
2018-05-23T17:23:55.787Z,17.90
2018-05-23T17:26:24.027Z,17.90
2018-05-23T17:28:52.982Z,17.90
2018-05-23T17:31:21.258Z,17.90
2018-05-23T17:33:49.485Z,17.90
2018-05-23T17:36:18.667Z,18.00
2018-05-23T17:38:46.862Z,18.10
2018-05-23T17:41:15.074Z,18.10
2018-05-23T17:43:43.291Z,18.10
2018-05-23T17:46:11.480Z,18.20
2018-05-23T17:48:39.691Z,18.20
2018-05-23T17:51:07.915Z,18.30
2018-05-23T17:53:36.259Z,18.30
2018-05-23T17:56:04.430Z,18.40
2018-05-23T17:58:33.047Z,18.40
2018-05-23T18:01:02.036Z,18.40
2018-05-23T18:03:31.086Z,18.40
2018-05-23T18:05:59.422Z,18.40
2018-05-23T18:08:27.571Z,18.40
2018-05-23T18:10:55.759Z,18.40
2018-05-23T18:13:24.716Z,18.40
2018-05-23T18:15:53.206Z,18.40
2018-05-23T18:18:21.470Z,18.40
2018-05-23T18:20:49.661Z,18.30
2018-05-23T18:23:20.986Z,18.30
2018-05-23T18:25:49.234Z,18.30
2018-05-23T18:28:17.447Z,18.20
2018-05-23T18:30:45.683Z,18.30
2018-05-23T18:33:14.053Z,18.20
2018-05-23T18:35:43.023Z,18.10
2018-05-23T18:38:11.302Z,18.10
2018-05-23T18:40:39.622Z,18.10
2018-05-23T18:43:08.998Z,18.10
2018-05-23T18:45:37.950Z,18.20
2018-05-23T18:48:06.191Z,18.20
2018-05-23T18:50:34.398Z,18.20
2018-05-23T18:53:03.051Z,18.10
2018-05-23T18:55:31.322Z,18.10
2018-05-23T18:58:00.306Z,18.20
2018-05-23T19:00:29.299Z,18.10
2018-05-23T19:02:57.722Z,18.10
2018-05-23T19:05:26.073Z,18.20
2018-05-23T19:07:55.023Z,18.10
2018-05-23T19:10:24.084Z,18.10
2018-05-23T19:12:52.278Z,18.10
2018-05-23T19:15:20.513Z,18.10
2018-05-23T19:17:49.514Z,18.10
2018-05-23T19:20:17.784Z,18.10
2018-05-23T19:22:46.161Z,18.10
2018-05-23T19:25:14.401Z,18.10
2018-05-23T19:27:43.435Z,18.10
2018-05-23T19:30:11.680Z,18.10
2018-05-23T19:32:40.831Z,18.00
2018-05-23T19:35:09.101Z,18.00
2018-05-23T19:37:37.611Z,18.00
2018-05-23T19:40:05.883Z,18.00
2018-05-23T19:42:34.155Z,18.00
2018-05-23T19:45:02.440Z,17.90
2018-05-23T19:47:30.785Z,17.90
2018-05-23T19:49:58.951Z,17.90
2018-05-23T19:52:27.186Z,17.90
2018-05-23T19:54:56.156Z,17.90
2018-05-23T19:57:24.411Z,17.90
2018-05-23T19:59:52.774Z,17.90
2018-05-23T20:02:20.987Z,17.80
2018-05-23T20:04:49.226Z,17.80
2018-05-23T20:07:17.494Z,17.70
2018-05-23T20:09:45.763Z,17.60
2018-05-23T20:12:14.802Z,17.60
2018-05-23T20:14:43.126Z,17.60
2018-05-23T20:17:11.636Z,17.60
2018-05-23T20:19:39.870Z,17.50
2018-05-23T20:22:08.167Z,17.50
2018-05-23T20:24:36.510Z,17.50
2018-05-23T20:27:04.986Z,17.50
2018-05-23T20:29:33.243Z,17.50
2018-05-23T20:32:01.440Z,17.50
2018-05-23T20:34:29.725Z,17.50
2018-05-23T20:36:57.918Z,17.50
2018-05-23T20:39:26.162Z,17.50
2018-05-23T20:41:54.367Z,17.60
2018-05-23T20:44:22.887Z,17.60
2018-05-23T20:46:51.097Z,17.60
2018-05-23T20:49:20.105Z,17.50
2018-05-23T20:51:48.391Z,17.50
2018-05-23T20:54:16.782Z,17.50
2018-05-23T20:56:45.020Z,17.50
2018-05-23T20:59:13.211Z,17.50
2018-05-23T21:01:42.580Z,17.50
2018-05-23T21:04:10.796Z,17.50
2018-05-23T21:06:38.990Z,17.50
2018-05-23T21:09:07.295Z,17.40
2018-05-23T21:11:36.996Z,17.30
2018-05-23T21:14:05.394Z,17.40
2018-05-23T21:16:33.737Z,17.20
2018-05-23T21:19:01.999Z,17.20
2018-05-23T21:21:30.349Z,17.10
2018-05-23T21:23:58.550Z,17.20
2018-05-23T21:26:26.794Z,17.20
2018-05-23T21:28:54.990Z,17.20
2018-05-23T21:31:23.502Z,17.20
2018-05-23T21:33:51.830Z,17.10
2018-05-23T21:36:20.101Z,17.00
2018-05-23T21:38:48.463Z,17.00
2018-05-23T21:41:16.738Z,17.00
2018-05-23T21:43:44.934Z,17.00
2018-05-23T21:46:13.943Z,16.90
2018-05-23T21:48:42.936Z,16.90
2018-05-23T21:51:12.118Z,16.80
2018-05-23T21:53:41.122Z,16.80
2018-05-23T21:56:10.127Z,16.90
2018-05-23T21:58:39.342Z,16.90
2018-05-23T22:01:07.543Z,16.90
2018-05-23T22:03:35.834Z,17.00
2018-05-23T22:06:04.065Z,17.00
2018-05-23T22:08:32.262Z,17.10
2018-05-23T22:11:00.592Z,17.10
2018-05-23T22:13:28.783Z,17.10
2018-05-23T22:15:57.068Z,17.10
2018-05-23T22:18:25.378Z,17.10
2018-05-23T22:20:53.503Z,17.20
2018-05-23T22:23:22.594Z,17.10
2018-05-23T22:25:51.592Z,17.10
2018-05-23T22:28:20.623Z,17.00
2018-05-23T22:30:48.938Z,17.00
2018-05-23T22:33:17.197Z,17.00
2018-05-23T22:35:45.399Z,16.90
2018-05-23T22:38:14.451Z,17.10
2018-05-23T22:40:42.735Z,17.00
2018-05-23T22:43:10.943Z,17.10
2018-05-23T22:45:39.258Z,17.10
2018-05-23T22:48:08.467Z,17.10
2018-05-23T22:50:36.715Z,17.00
2018-05-23T22:53:05.687Z,17.10
2018-05-23T22:55:34.010Z,17.10
2018-05-23T22:58:02.339Z,17.20
2018-05-23T23:00:30.639Z,17.20
2018-05-23T23:02:58.914Z,17.10
2018-05-23T23:05:27.192Z,17.00
2018-05-23T23:07:56.171Z,16.80
2018-05-23T23:10:25.299Z,16.70
2018-05-23T23:12:53.498Z,16.70
2018-05-23T23:15:21.774Z,16.70
2018-05-23T23:17:49.982Z,16.70
2018-05-23T23:20:18.242Z,16.70
2018-05-23T23:22:46.474Z,16.70
2018-05-23T23:25:15.518Z,16.70
2018-05-23T23:27:43.731Z,16.70
2018-05-23T23:30:12.828Z,16.70
2018-05-23T23:32:41.023Z,16.70
2018-05-23T23:35:09.255Z,16.80
2018-05-23T23:37:38.303Z,16.90
2018-05-23T23:40:07.430Z,16.90
2018-05-23T23:42:35.647Z,16.80
2018-05-23T23:45:03.991Z,16.70
2018-05-23T23:47:32.231Z,16.70
2018-05-23T23:50:00.527Z,16.70
2018-05-23T23:52:28.743Z,16.70
2018-05-23T23:54:57.926Z,16.70
2018-05-23T23:57:26.906Z,16.70
2018-05-23T23:59:55.103Z,16.70
